createdAt,value
2022-11-13T00:02:55.496Z,99313.67
2022-11-13T00:05:42.199Z,99312.86
2022-11-13T00:08:29.314Z,99310.22
2022-11-13T00:11:19.451Z,99309.55
2022-11-13T00:14:06.184Z,99307.83
2022-11-13T00:16:53.230Z,99303.97
2022-11-13T00:19:39.916Z,99306.16
2022-11-13T00:22:26.517Z,99307.44
2022-11-13T00:25:13.498Z,99304.51
2022-11-13T00:28:00.056Z,99310.80
2022-11-13T00:30:46.620Z,99315.58
2022-11-13T00:36:40.631Z,99320.13
2022-11-13T00:39:27.210Z,99317.30
2022-11-13T00:42:13.686Z,99316.30
2022-11-13T00:45:00.035Z,99311.96
2022-11-13T00:47:46.571Z,99313.09
2022-11-13T00:50:33.076Z,99311.98
2022-11-13T00:53:19.601Z,99310.34
2022-11-13T00:56:06.171Z,99307.19
2022-11-13T00:58:53.069Z,99303.64
2022-11-13T01:01:39.811Z,99300.61
2022-11-13T01:04:28.533Z,99299.92
2022-11-13T01:07:15.119Z,99300.02
2022-11-13T01:10:03.127Z,99294.50
2022-11-13T01:12:49.791Z,99289.46
2022-11-13T01:15:40.207Z,99293.18
2022-11-13T01:18:26.647Z,99290.14
2022-11-13T01:21:19.321Z,99286.20
2022-11-13T01:24:06.059Z,99281.27
2022-11-13T01:26:54.363Z,99277.83
2022-11-13T01:29:41.005Z,99273.89
2022-11-13T01:32:27.733Z,99273.98
2022-11-13T01:35:14.475Z,99272.71
2022-11-13T01:38:00.961Z,99272.42
2022-11-13T01:40:48.503Z,99272.70
2022-11-13T01:43:37.562Z,99270.55
2022-11-13T01:46:36.664Z,99270.80
2022-11-13T01:49:29.447Z,99275.15
2022-11-13T01:52:21.576Z,99275.77
2022-11-13T01:55:17.680Z,99273.38
2022-11-13T01:58:07.773Z,99272.70
2022-11-13T02:00:54.830Z,99266.23
2022-11-13T02:03:41.634Z,99266.27
2022-11-13T02:06:33.862Z,99264.55
2022-11-13T02:09:24.887Z,99263.45
2022-11-13T02:12:14.743Z,99261.39
2022-11-13T02:15:04.781Z,99261.82
2022-11-13T02:17:58.380Z,99264.35
2022-11-13T02:20:56.213Z,99267.93
2022-11-13T02:24:12.817Z,99266.90
2022-11-13T02:27:03.296Z,99268.58
2022-11-13T02:29:49.813Z,99271.74
2022-11-13T02:32:43.012Z,99274.00
2022-11-13T02:35:37.907Z,99270.62
2022-11-13T02:38:24.693Z,99272.40
2022-11-13T02:41:11.358Z,99269.80
2022-11-13T02:43:58.187Z,99267.41
2022-11-13T02:46:44.514Z,99264.95
2022-11-13T02:49:31.564Z,99268.88
2022-11-13T02:52:18.201Z,99270.60
2022-11-13T02:55:05.719Z,99271.48
2022-11-13T02:57:52.341Z,99273.95
2022-11-13T03:00:39.022Z,99274.67
2022-11-13T03:03:55.931Z,99275.29
2022-11-13T03:06:32.236Z,99275.37
2022-11-13T03:09:18.851Z,99271.96
2022-11-13T03:12:07.198Z,99270.91
2022-11-13T03:14:54.039Z,99271.94
2022-11-13T03:17:40.723Z,99273.05
2022-11-13T03:20:27.176Z,99275.69
2022-11-13T03:23:13.724Z,99276.34
2022-11-13T03:26:18.281Z,99272.83
2022-11-13T03:29:05.012Z,99267.16
2022-11-13T03:31:51.870Z,99267.42
2022-11-13T03:34:39.436Z,99267.52
2022-11-13T03:37:26.404Z,99270.95
2022-11-13T03:40:12.990Z,99274.91
2022-11-13T03:42:59.589Z,99273.01
2022-11-13T03:45:47.537Z,99268.81
2022-11-13T03:48:34.460Z,99268.17
2022-11-13T03:51:21.224Z,99270.19
2022-11-13T03:54:07.788Z,99267.73
2022-11-13T03:56:54.990Z,99267.16
2022-11-13T03:59:41.664Z,99269.10
2022-11-13T04:02:28.544Z,99267.70
2022-11-13T04:05:17.513Z,99268.20
2022-11-13T04:08:09.145Z,99267.30
2022-11-13T04:10:55.547Z,99270.59
2022-11-13T04:13:42.137Z,99267.55
2022-11-13T04:16:28.541Z,99268.46
2022-11-13T04:19:15.269Z,99270.91
2022-11-13T04:22:01.861Z,99264.14
2022-11-13T04:24:48.276Z,99262.19
2022-11-13T04:27:35.392Z,99265.25
2022-11-13T04:30:21.610Z,99263.09
2022-11-13T04:33:08.224Z,99261.36
2022-11-13T04:35:54.952Z,99262.69
2022-11-13T04:38:41.677Z,99261.98
2022-11-13T04:41:50.011Z,99266.20
2022-11-13T04:44:39.235Z,99265.73
2022-11-13T04:47:25.793Z,99264.36
2022-11-13T04:50:13.399Z,99267.96
2022-11-13T04:53:00.185Z,99269.91
2022-11-13T04:55:46.997Z,99269.92
2022-11-13T04:58:34.118Z,99270.06
2022-11-13T05:01:20.692Z,99272.41
2022-11-13T05:04:07.431Z,99272.91
2022-11-13T05:06:54.420Z,99272.28
2022-11-13T05:09:41.052Z,99270.46
2022-11-13T05:12:27.653Z,99269.31
2022-11-13T05:15:14.667Z,99267.59
2022-11-13T05:18:01.291Z,99266.18
2022-11-13T05:20:48.305Z,99267.54
2022-11-13T05:23:36.320Z,99267.13
2022-11-13T05:26:23.098Z,99261.63
2022-11-13T05:29:09.459Z,99260.36
2022-11-13T05:31:56.496Z,99259.60
2022-11-13T05:34:43.429Z,99262.01
2022-11-13T05:37:30.105Z,99262.64
2022-11-13T05:40:17.106Z,99264.83
2022-11-13T05:43:04.058Z,99268.73
2022-11-13T05:45:50.453Z,99270.79
2022-11-13T05:48:37.339Z,99276.67
2022-11-13T05:51:27.483Z,99282.19
2022-11-13T05:54:14.587Z,99282.38
2022-11-13T05:57:01.134Z,99278.23
2022-11-13T05:59:47.801Z,99283.15
2022-11-13T06:02:35.524Z,99286.27
2022-11-13T06:05:22.192Z,99287.83
2022-11-13T06:08:08.802Z,99284.27
2022-11-13T06:11:00.760Z,99284.11
2022-11-13T06:13:48.944Z,99282.48
2022-11-13T06:16:37.544Z,99280.14
2022-11-13T06:19:24.179Z,99282.52
2022-11-13T06:22:10.856Z,99283.45
2022-11-13T06:24:57.282Z,99282.15
2022-11-13T06:27:43.978Z,99284.50
2022-11-13T06:30:30.655Z,99283.34
2022-11-13T06:33:17.385Z,99278.45
2022-11-13T06:36:10.528Z,99277.77
2022-11-13T06:38:58.466Z,99276.11
2022-11-13T06:41:45.124Z,99273.82
2022-11-13T06:44:32.159Z,99270.84
2022-11-13T06:47:19.051Z,99269.36
2022-11-13T06:50:06.941Z,99269.83
2022-11-13T06:52:54.606Z,99264.02
2022-11-13T06:55:50.058Z,99265.16
2022-11-13T06:58:37.892Z,99264.19
2022-11-13T07:01:26.102Z,99267.69
2022-11-13T07:04:14.058Z,99265.30
2022-11-13T07:07:00.782Z,99260.16
2022-11-13T07:09:47.340Z,99258.43
2022-11-13T07:12:34.124Z,99265.13
2022-11-13T07:15:20.894Z,99261.23
2022-11-13T07:18:07.969Z,99258.53
2022-11-13T07:20:55.324Z,99256.94
2022-11-13T07:23:43.611Z,99259.44
2022-11-13T07:26:30.665Z,99263.59
2022-11-13T07:29:17.167Z,99265.82
2022-11-13T07:32:04.330Z,99259.77
2022-11-13T07:34:51.152Z,99262.61
2022-11-13T07:37:38.564Z,99262.63
2022-11-13T07:40:25.826Z,99257.85
2022-11-13T07:43:12.605Z,99257.44
2022-11-13T07:46:00.788Z,99260.73
2022-11-13T07:48:47.498Z,99257.36
2022-11-13T07:51:34.459Z,99254.77
2022-11-13T07:54:20.875Z,99250.06
2022-11-13T07:57:07.890Z,99251.84
2022-11-13T07:59:54.974Z,99253.64
2022-11-13T08:02:41.469Z,99254.06
2022-11-13T08:05:28.134Z,99251.51
2022-11-13T08:08:15.663Z,99249.25
2022-11-13T08:11:06.757Z,99246.70
2022-11-13T08:13:54.072Z,99248.09
2022-11-13T08:16:41.133Z,99246.38
2022-11-13T08:19:27.544Z,99245.09
2022-11-13T08:22:14.310Z,99242.80
2022-11-13T08:25:01.127Z,99239.41
2022-11-13T08:27:47.961Z,99240.95
2022-11-13T08:30:34.217Z,99237.45
2022-11-13T08:33:21.072Z,99235.60
2022-11-13T08:36:09.011Z,99231.89
2022-11-13T08:38:55.599Z,99231.23
2022-11-13T08:41:42.260Z,99237.79
2022-11-13T08:44:28.936Z,99239.88
2022-11-13T08:47:16.100Z,99241.50
2022-11-13T08:50:04.818Z,99238.46
2022-11-13T08:52:59.764Z,99234.87
2022-11-13T08:55:46.374Z,99231.46
2022-11-13T08:58:33.025Z,99226.20
2022-11-13T09:01:23.623Z,99225.92
2022-11-13T09:04:11.720Z,99226.28
2022-11-13T09:06:58.725Z,99229.92
2022-11-13T09:09:45.722Z,99225.67
2022-11-13T09:12:32.164Z,99220.34
2022-11-13T09:15:23.288Z,99219.86
2022-11-13T09:18:11.629Z,99218.45
2022-11-13T09:21:02.985Z,99214.64
2022-11-13T09:23:49.704Z,99208.66
2022-11-13T09:26:37.023Z,99204.41
2022-11-13T09:29:26.189Z,99204.99
2022-11-13T09:32:12.997Z,99203.54
2022-11-13T09:35:00.316Z,99201.92
2022-11-13T09:37:52.395Z,99199.31
2022-11-13T09:41:00.983Z,99193.40
2022-11-13T09:43:59.290Z,99196.30
2022-11-13T09:46:59.351Z,99193.97
2022-11-13T09:49:52.501Z,99188.70
2022-11-13T09:52:43.021Z,99184.15
2022-11-13T09:55:38.673Z,99186.13
2022-11-13T09:58:43.613Z,99176.45
2022-11-13T10:01:56.349Z,99171.95
2022-11-13T10:05:04.409Z,99171.73
2022-11-13T10:08:06.586Z,99166.88
2022-11-13T10:11:11.853Z,99163.81
2022-11-13T10:14:03.686Z,99157.55
2022-11-13T10:16:50.409Z,99153.71
2022-11-13T10:20:00.112Z,99151.62
2022-11-13T10:22:59.421Z,99147.14
2022-11-13T10:25:46.993Z,99140.98
2022-11-13T10:28:50.192Z,99141.60
2022-11-13T10:31:47.903Z,99140.01
2022-11-13T10:34:34.970Z,99136.39
2022-11-13T10:37:27.597Z,99138.38
2022-11-13T10:40:36.206Z,99139.92
2022-11-13T10:43:26.444Z,99135.27
2022-11-13T10:46:24.600Z,99135.92
2022-11-13T10:49:29.558Z,99133.48
2022-11-13T10:52:25.619Z,99129.23
2022-11-13T10:55:36.134Z,99122.33
2022-11-13T10:58:23.347Z,99115.52
2022-11-13T11:01:23.693Z,99110.63
2022-11-13T11:04:20.021Z,99107.42
2022-11-13T11:07:22.837Z,99104.14
2022-11-13T11:10:20.571Z,99100.16
2022-11-13T11:13:12.741Z,99096.77
2022-11-13T11:16:04.765Z,99095.92
2022-11-13T11:19:09.883Z,99093.55
2022-11-13T11:22:13.991Z,99092.04
2022-11-13T11:25:24.791Z,99084.48
2022-11-13T11:28:21.619Z,99075.98
2022-11-13T11:31:17.589Z,99070.92
2022-11-13T11:34:13.273Z,99066.30
2022-11-13T11:37:07.620Z,99062.23
2022-11-13T11:40:03.520Z,99060.75
2022-11-13T11:43:01.853Z,99059.89
2022-11-13T11:45:49.674Z,99058.83
2022-11-13T11:48:37.179Z,99058.10
2022-11-13T11:51:31.193Z,99056.52
2022-11-13T11:54:44.097Z,99057.70
2022-11-13T11:57:57.863Z,99058.02
2022-11-13T12:00:53.695Z,99055.42
2022-11-13T12:03:56.296Z,99055.14
2022-11-13T12:07:05.044Z,99050.59
2022-11-13T12:10:10.312Z,99049.95
2022-11-13T12:13:09.448Z,99046.14
2022-11-13T12:16:25.065Z,99042.60
2022-11-13T12:19:30.911Z,99034.48
2022-11-13T12:22:20.871Z,99036.16
2022-11-13T12:25:14.266Z,99034.83
2022-11-13T12:28:24.487Z,99029.20
2022-11-13T12:31:40.772Z,99025.48
2022-11-13T12:34:39.475Z,99029.39
2022-11-13T12:37:32.321Z,99029.13
2022-11-13T12:40:28.952Z,99028.67
2022-11-13T12:43:25.467Z,99028.52
2022-11-13T12:46:13.332Z,99024.27
2022-11-13T12:49:01.176Z,99019.17
2022-11-13T12:51:56.086Z,99017.73
2022-11-13T12:54:43.893Z,99018.84
2022-11-13T12:57:32.601Z,99019.55
2022-11-13T13:00:30.844Z,99003.03
2022-11-13T13:03:39.442Z,99010.91
2022-11-13T13:06:26.014Z,99012.39
2022-11-13T13:09:30.728Z,99009.64
2022-11-13T13:12:24.099Z,99005.27
2022-11-13T13:15:35.281Z,98999.46
2022-11-13T13:18:25.097Z,98998.05
2022-11-13T13:21:15.820Z,98994.14
2022-11-13T13:24:27.157Z,98991.23
2022-11-13T13:27:29.646Z,98988.66
2022-11-13T13:30:26.697Z,98988.39
2022-11-13T13:33:25.518Z,98984.56
2022-11-13T13:36:19.413Z,98982.83
2022-11-13T13:39:22.898Z,98983.73
2022-11-13T13:42:35.173Z,98985.10
2022-11-13T13:45:42.614Z,98986.83
2022-11-13T13:48:32.168Z,98983.23
2022-11-13T13:51:34.387Z,98982.05
2022-11-13T13:54:31.988Z,98985.16
2022-11-13T13:57:18.763Z,98986.20
2022-11-13T14:00:14.817Z,98983.87
2022-11-13T14:03:03.378Z,98975.79
2022-11-13T14:05:50.330Z,98970.56
2022-11-13T14:08:36.644Z,98967.40
2022-11-13T14:11:29.978Z,98965.14
2022-11-13T14:14:23.313Z,98964.95
2022-11-13T14:17:12.045Z,98964.94
2022-11-13T14:20:01.448Z,98963.55
2022-11-13T14:22:56.281Z,98961.66
2022-11-13T14:25:45.328Z,98959.02
2022-11-13T14:28:36.337Z,98956.71
2022-11-13T14:31:32.688Z,98955.50
2022-11-13T14:34:22.679Z,98949.80
2022-11-13T14:37:19.912Z,98948.63
2022-11-13T14:40:23.669Z,98950.16
2022-11-13T14:43:27.821Z,98947.59
2022-11-13T14:46:48.071Z,98944.89
2022-11-13T14:49:38.035Z,98948.31
2022-11-13T14:52:28.098Z,98950.42
2022-11-13T14:55:31.756Z,98948.38
2022-11-13T14:58:36.614Z,98944.77
2022-11-13T15:01:25.440Z,98943.81
2022-11-13T15:04:12.409Z,98940.27
2022-11-13T15:07:02.292Z,98944.14
2022-11-13T15:09:50.136Z,98945.77
2022-11-13T15:12:37.279Z,98944.42
2022-11-13T15:15:28.489Z,98943.20
2022-11-13T15:18:19.958Z,98942.30
2022-11-13T15:21:06.894Z,98940.00
2022-11-13T15:23:53.997Z,98941.02
2022-11-13T15:26:41.253Z,98942.58
2022-11-13T15:29:28.154Z,98937.90
2022-11-13T15:32:16.222Z,98938.16
2022-11-13T15:35:04.356Z,98942.77
2022-11-13T15:37:51.304Z,98946.33
2022-11-13T15:40:39.588Z,98942.10
2022-11-13T15:43:27.096Z,98938.80
2022-11-13T15:46:17.623Z,98935.85
2022-11-13T15:49:04.315Z,98938.11
2022-11-13T15:51:51.106Z,98938.36
2022-11-13T15:54:38.947Z,98937.70
2022-11-13T15:57:27.724Z,98938.70
2022-11-13T16:00:17.859Z,98942.31
2022-11-13T16:03:11.238Z,98941.39
2022-11-13T16:05:59.823Z,98945.09
2022-11-13T16:08:47.414Z,98943.91
2022-11-13T16:11:35.152Z,98945.58
2022-11-13T16:14:25.288Z,98949.45
2022-11-13T16:17:20.979Z,98954.66
2022-11-13T16:20:14.231Z,98956.02
2022-11-13T16:23:01.074Z,98955.55
2022-11-13T16:25:49.712Z,98953.11
2022-11-13T16:28:46.916Z,98953.11
2022-11-13T16:31:43.773Z,98955.10
2022-11-13T16:34:31.190Z,98950.80
2022-11-13T16:37:20.990Z,98948.65
2022-11-13T16:40:25.943Z,98948.79
2022-11-13T16:43:13.388Z,98947.05
2022-11-13T16:46:01.109Z,98947.36
2022-11-13T16:48:48.287Z,98951.69
2022-11-13T16:51:35.144Z,98953.44
2022-11-13T16:54:22.013Z,98949.79
2022-11-13T16:57:14.036Z,98950.13
2022-11-13T17:00:00.524Z,98952.44
2022-11-13T17:02:51.873Z,98950.96
2022-11-13T17:05:38.811Z,98952.92
2022-11-13T17:08:25.418Z,98952.46
2022-11-13T17:11:14.125Z,98951.33
2022-11-13T17:14:02.987Z,98946.05
2022-11-13T17:16:49.427Z,98942.11
2022-11-13T17:19:40.844Z,98943.23
2022-11-13T17:22:28.007Z,98944.34
2022-11-13T17:25:20.808Z,98944.77
2022-11-13T17:28:07.683Z,98943.09
2022-11-13T17:30:59.021Z,98942.24
2022-11-13T17:33:47.478Z,98941.02
2022-11-13T17:36:34.156Z,98942.67
2022-11-13T17:39:21.452Z,98936.63
2022-11-13T17:42:08.076Z,98936.44
2022-11-13T17:44:55.467Z,98937.67
2022-11-13T17:47:43.131Z,98933.33
2022-11-13T17:50:30.044Z,98930.30
2022-11-13T17:53:16.808Z,98926.23
2022-11-13T17:56:07.449Z,98928.41
2022-11-13T17:58:55.097Z,98926.70
2022-11-13T18:01:42.402Z,98926.84
2022-11-13T18:04:28.989Z,98926.80
2022-11-13T18:07:15.541Z,98926.29
2022-11-13T18:10:02.721Z,98927.44
2022-11-13T18:12:49.260Z,98929.10
2022-11-13T18:15:40.697Z,98926.26
2022-11-13T18:18:27.516Z,98926.44
2022-11-13T18:21:24.877Z,98924.83
2022-11-13T18:24:15.961Z,98925.21
2022-11-13T18:27:06.287Z,98924.27
2022-11-13T18:29:53.776Z,98924.86
2022-11-13T18:32:40.706Z,98917.91
2022-11-13T18:35:27.284Z,98914.95
2022-11-13T18:38:13.944Z,98910.27
2022-11-13T18:41:09.718Z,98909.74
2022-11-13T18:43:56.568Z,98908.86
2022-11-13T18:46:43.822Z,98909.84
2022-11-13T18:49:31.105Z,98908.26
2022-11-13T18:52:17.776Z,98905.90
2022-11-13T18:55:04.824Z,98904.23
2022-11-13T18:57:51.875Z,98906.08
2022-11-13T19:00:39.356Z,98903.48
2022-11-13T19:03:26.508Z,98901.75
2022-11-13T19:06:17.450Z,98897.09
2022-11-13T19:09:07.667Z,98901.05
2022-11-13T19:11:54.673Z,98892.80
2022-11-13T19:14:41.765Z,98899.38
2022-11-13T19:17:28.618Z,98901.09
2022-11-13T19:20:17.906Z,98895.34
2022-11-13T19:23:09.046Z,98885.84
2022-11-13T19:25:56.740Z,98888.07
2022-11-13T19:28:48.873Z,98888.13
2022-11-13T19:31:37.004Z,98886.84
2022-11-13T19:34:24.095Z,98889.49
2022-11-13T19:37:13.798Z,98891.06
2022-11-13T19:40:04.054Z,98890.45
2022-11-13T19:42:52.875Z,98892.38
2022-11-13T19:45:40.237Z,98892.96
2022-11-13T19:48:27.416Z,98894.15
2022-11-13T19:51:21.141Z,98893.77
2022-11-13T19:54:08.516Z,98888.35
2022-11-13T19:56:55.388Z,98885.86
2022-11-13T19:59:42.418Z,98886.63
2022-11-13T20:02:29.102Z,98885.06
2022-11-13T20:05:16.242Z,98885.06
2022-11-13T20:08:03.407Z,98887.77
2022-11-13T20:10:50.486Z,98886.02
2022-11-13T20:13:39.578Z,98885.41
2022-11-13T20:16:26.714Z,98889.45
2022-11-13T20:19:13.716Z,98892.69
2022-11-13T20:22:00.906Z,98891.44
2022-11-13T20:24:47.923Z,98889.59
2022-11-13T20:27:37.365Z,98890.21
2022-11-13T20:30:24.003Z,98888.48
2022-11-13T20:33:11.254Z,98891.79
2022-11-13T20:35:58.432Z,98889.77
2022-11-13T20:38:53.466Z,98890.55
2022-11-13T20:41:40.250Z,98886.77
2022-11-13T20:44:27.069Z,98884.55
2022-11-13T20:47:14.336Z,98882.81
2022-11-13T20:50:01.485Z,98880.02
2022-11-13T20:52:47.755Z,98878.90
2022-11-13T20:55:35.882Z,98876.08
2022-11-13T20:58:23.143Z,98874.81
2022-11-13T21:01:13.451Z,98871.83
2022-11-13T21:04:00.363Z,98866.31
2022-11-13T21:06:47.739Z,98863.73
2022-11-13T21:09:34.339Z,98864.11
2022-11-13T21:12:20.871Z,98867.16
2022-11-13T21:15:08.437Z,98867.39
2022-11-13T21:17:55.448Z,98866.56
2022-11-13T21:20:42.484Z,98869.23
2022-11-13T21:23:30.179Z,98867.42
2022-11-13T21:26:16.763Z,98866.95
2022-11-13T21:29:03.456Z,98866.88
2022-11-13T21:31:50.112Z,98864.92
2022-11-13T21:34:37.025Z,98863.40
2022-11-13T21:37:24.068Z,98866.23
2022-11-13T21:40:11.487Z,98867.25
2022-11-13T21:42:57.988Z,98866.84
2022-11-13T21:45:44.903Z,98864.38
2022-11-13T21:48:33.531Z,98862.59
2022-11-13T21:51:20.737Z,98864.23
2022-11-13T21:54:08.680Z,98862.56
2022-11-13T21:56:55.530Z,98861.97
2022-11-13T21:59:41.993Z,98863.02
2022-11-13T22:02:28.729Z,98863.44
2022-11-13T22:05:15.523Z,98865.70
2022-11-13T22:08:02.325Z,98863.90
2022-11-13T22:10:49.166Z,98861.02
2022-11-13T22:13:36.491Z,98862.92
2022-11-13T22:16:23.900Z,98863.15
2022-11-13T22:19:23.843Z,98866.67
2022-11-13T22:22:13.432Z,98864.32
2022-11-13T22:25:00.104Z,98862.81
2022-11-13T22:27:47.062Z,98860.26
2022-11-13T22:30:34.253Z,98861.58
2022-11-13T22:33:20.897Z,98859.13
2022-11-13T22:36:17.897Z,98855.59
2022-11-13T22:39:06.154Z,98856.52
2022-11-13T22:41:53.154Z,98856.80
2022-11-13T22:44:54.987Z,98850.83
2022-11-13T22:47:42.389Z,98849.69
2022-11-13T22:50:29.086Z,98845.05
2022-11-13T22:53:16.675Z,98843.15
2022-11-13T22:56:09.935Z,98844.27
2022-11-13T22:58:58.883Z,98844.04
2022-11-13T23:01:46.584Z,98841.30
2022-11-13T23:04:33.080Z,98842.57
2022-11-13T23:07:19.934Z,98841.74
2022-11-13T23:10:07.671Z,98842.36
2022-11-13T23:12:54.484Z,98839.55
2022-11-13T23:15:42.229Z,98837.09
2022-11-13T23:18:32.911Z,98836.79
2022-11-13T23:21:19.962Z,98828.66
2022-11-13T23:24:06.925Z,98826.09
2022-11-13T23:26:53.577Z,98827.91
2022-11-13T23:29:40.452Z,98829.63
2022-11-13T23:32:26.981Z,98825.91
2022-11-13T23:35:14.432Z,98825.93
2022-11-13T23:38:01.026Z,98824.39
2022-11-13T23:40:52.654Z,98825.91
2022-11-13T23:44:08.329Z,98823.02
2022-11-13T23:46:46.058Z,98820.73
2022-11-13T23:49:33.025Z,98824.70
2022-11-13T23:52:19.765Z,98824.04
2022-11-13T23:55:06.708Z,98822.90
2022-11-13T23:58:01.846Z,98822.89
